createdAt,value
2023-02-22T00:02:20.069Z,17.98
2023-02-22T00:04:46.495Z,17.68
2023-02-22T00:07:12.903Z,17.87
2023-02-22T00:09:39.327Z,16.62
2023-02-22T00:12:05.695Z,16.85
2023-02-22T00:14:32.097Z,16.41
2023-02-22T00:16:58.546Z,15.76
2023-02-22T00:19:24.957Z,16.09
2023-02-22T00:21:51.359Z,16.78
2023-02-22T00:24:17.716Z,18.29
2023-02-22T00:26:44.062Z,18.27
2023-02-22T00:29:10.407Z,17.98
2023-02-22T00:31:36.933Z,18.38
2023-02-22T00:34:03.369Z,17.89
2023-02-22T00:36:29.772Z,16.94
2023-02-22T00:38:56.131Z,17.21
2023-02-22T00:41:22.545Z,17.65
2023-02-22T00:43:48.937Z,17.04
2023-02-22T00:46:15.386Z,16.24
2023-02-22T00:48:41.768Z,15.04
2023-02-22T00:51:08.152Z,15.42
2023-02-22T00:53:34.831Z,15.45
2023-02-22T00:56:01.239Z,16.73
2023-02-22T00:58:27.635Z,17.07
2023-02-22T01:00:54.047Z,16.02
2023-02-22T01:03:20.477Z,15.57
2023-02-22T01:05:47.012Z,15.42
2023-02-22T01:08:13.583Z,15.50
2023-02-22T01:10:40.037Z,14.86
2023-02-22T01:13:06.398Z,14.81
2023-02-22T01:15:32.834Z,15.22
2023-02-22T01:17:59.203Z,13.87
2023-02-22T01:20:25.600Z,12.67
2023-02-22T01:22:51.972Z,13.01
2023-02-22T01:25:18.311Z,13.58
2023-02-22T01:27:44.706Z,13.40
2023-02-22T01:30:11.159Z,14.17
2023-02-22T01:32:37.589Z,13.76
2023-02-22T01:35:03.983Z,13.52
2023-02-22T01:37:30.381Z,13.07
2023-02-22T01:39:56.760Z,13.02
2023-02-22T01:42:23.150Z,13.42
2023-02-22T01:44:49.549Z,14.05
2023-02-22T01:47:15.907Z,14.16
2023-02-22T01:49:42.252Z,13.95
2023-02-22T01:52:08.636Z,14.01
2023-02-22T01:54:35.004Z,14.59
2023-02-22T01:57:01.351Z,14.06
2023-02-22T01:59:27.726Z,15.84
2023-02-22T02:01:54.122Z,15.99
2023-02-22T02:04:20.495Z,15.48
2023-02-22T02:06:46.867Z,15.30
2023-02-22T02:09:13.243Z,15.24
2023-02-22T02:11:39.626Z,15.50
2023-02-22T02:14:06.063Z,16.64
2023-02-22T02:16:32.431Z,16.96
2023-02-22T02:18:58.794Z,16.41
2023-02-22T02:21:25.177Z,15.77
2023-02-22T02:23:51.536Z,15.92
2023-02-22T02:26:17.893Z,15.01
2023-02-22T02:28:44.284Z,14.46
2023-02-22T02:31:10.644Z,14.54
2023-02-22T02:33:37.036Z,14.87
2023-02-22T02:36:03.420Z,14.38
2023-02-22T02:38:29.829Z,16.26
2023-02-22T02:40:56.190Z,15.19
2023-02-22T02:43:22.602Z,14.98
2023-02-22T02:45:48.959Z,14.95
2023-02-22T02:48:15.349Z,15.19
2023-02-22T02:50:41.754Z,14.58
2023-02-22T02:53:08.139Z,14.37
2023-02-22T02:55:34.524Z,14.34
2023-02-22T02:58:00.920Z,13.64
2023-02-22T03:00:27.315Z,15.01
2023-02-22T03:02:53.666Z,15.05
2023-02-22T03:05:20.054Z,16.07
2023-02-22T03:07:46.451Z,15.64
2023-02-22T03:10:12.858Z,15.98
2023-02-22T03:12:39.198Z,16.18
2023-02-22T03:15:05.538Z,16.31
2023-02-22T03:17:31.899Z,16.55
2023-02-22T03:19:58.276Z,16.36
2023-02-22T03:22:24.680Z,16.18
2023-02-22T03:24:51.089Z,16.25
2023-02-22T03:27:17.441Z,15.65
2023-02-22T03:29:43.830Z,16.39
2023-02-22T03:32:10.308Z,15.58
2023-02-22T03:34:36.691Z,15.32
2023-02-22T03:37:03.068Z,16.36
2023-02-22T03:39:29.460Z,16.77
2023-02-22T03:41:55.827Z,16.63
2023-02-22T03:44:22.159Z,15.50
2023-02-22T03:46:48.538Z,15.78
2023-02-22T03:49:14.890Z,15.71
2023-02-22T03:51:41.292Z,16.69
2023-02-22T03:54:07.744Z,17.50
2023-02-22T03:56:34.579Z,17.70
2023-02-22T03:59:01.003Z,17.28
2023-02-22T04:01:27.399Z,15.16
2023-02-22T04:03:53.791Z,15.13
2023-02-22T04:06:20.147Z,16.56
2023-02-22T04:08:46.534Z,15.96
2023-02-22T04:11:12.934Z,17.16
2023-02-22T04:13:39.279Z,15.75
2023-02-22T04:16:05.673Z,16.62
2023-02-22T04:18:32.039Z,17.86
2023-02-22T04:20:58.602Z,17.78
2023-02-22T04:23:24.994Z,17.23
2023-02-22T04:25:51.330Z,17.36
2023-02-22T04:28:17.714Z,18.20
2023-02-22T04:30:44.078Z,18.95
2023-02-22T04:33:10.423Z,18.03
2023-02-22T04:35:36.766Z,17.85
2023-02-22T04:38:03.119Z,17.34
2023-02-22T04:40:29.509Z,16.72
2023-02-22T04:42:55.858Z,16.99
2023-02-22T04:45:22.236Z,17.84
2023-02-22T04:47:48.593Z,17.44
2023-02-22T04:50:14.975Z,16.89
2023-02-22T04:52:41.341Z,16.84
2023-02-22T04:55:07.744Z,17.17
2023-02-22T04:57:34.136Z,18.39
2023-02-22T05:00:00.530Z,17.72
2023-02-22T05:02:26.953Z,17.10
2023-02-22T05:04:53.368Z,17.13
2023-02-22T05:07:19.804Z,17.96
2023-02-22T05:09:46.218Z,18.11
2023-02-22T05:12:12.583Z,18.29
2023-02-22T05:14:38.932Z,17.48
2023-02-22T05:17:05.312Z,17.10
2023-02-22T05:19:31.724Z,18.03
2023-02-22T05:21:58.092Z,18.09
2023-02-22T05:24:24.443Z,18.49
2023-02-22T05:26:50.814Z,18.01
2023-02-22T05:29:17.197Z,17.79
2023-02-22T05:31:43.646Z,18.25
2023-02-22T05:34:10.106Z,18.31
2023-02-22T05:36:36.463Z,16.97
2023-02-22T05:39:02.847Z,17.68
2023-02-22T05:41:29.234Z,17.83
2023-02-22T05:43:55.629Z,17.32
2023-02-22T05:46:22.027Z,17.89
2023-02-22T05:48:48.454Z,19.67
2023-02-22T05:51:15.012Z,20.33
2023-02-22T05:53:41.470Z,18.80
2023-02-22T05:56:07.927Z,19.50
2023-02-22T05:58:34.279Z,21.31
2023-02-22T06:01:02.938Z,21.47
2023-02-22T06:03:29.617Z,21.44
2023-02-22T06:05:55.970Z,20.66
2023-02-22T06:08:22.359Z,21.13
2023-02-22T06:10:48.765Z,21.62
2023-02-22T06:13:15.114Z,22.61
2023-02-22T06:15:41.462Z,23.72
2023-02-22T06:18:07.810Z,22.77
2023-02-22T06:20:34.158Z,24.46
2023-02-22T06:23:00.563Z,25.36
2023-02-22T06:25:26.931Z,25.07
2023-02-22T06:27:53.314Z,23.57
2023-02-22T06:30:19.712Z,23.06
2023-02-22T06:32:46.115Z,23.68
2023-02-22T06:35:12.517Z,22.41
2023-02-22T06:37:38.877Z,22.29
2023-02-22T06:40:05.944Z,22.42
2023-02-22T06:42:32.406Z,21.16
2023-02-22T06:44:58.803Z,22.99
2023-02-22T06:47:25.218Z,21.58
2023-02-22T06:49:51.608Z,23.32
2023-02-22T06:52:17.987Z,24.20
2023-02-22T06:54:44.331Z,23.02
2023-02-22T06:57:10.676Z,23.60
2023-02-22T06:59:37.060Z,23.74
2023-02-22T07:02:03.431Z,22.53
2023-02-22T07:04:29.796Z,23.96
2023-02-22T07:06:56.188Z,23.11
2023-02-22T07:09:22.547Z,23.60
2023-02-22T07:11:48.905Z,23.91
2023-02-22T07:14:15.297Z,23.35
2023-02-22T07:16:41.734Z,23.37
2023-02-22T07:19:08.132Z,22.91
2023-02-22T07:21:34.521Z,22.71
2023-02-22T07:24:00.876Z,22.69
2023-02-22T07:26:27.231Z,22.50
2023-02-22T07:28:53.570Z,23.19
2023-02-22T07:31:19.932Z,22.87
2023-02-22T07:33:46.337Z,22.55
2023-02-22T07:36:12.695Z,23.71
2023-02-22T07:38:39.076Z,23.18
2023-02-22T07:41:05.469Z,23.31
2023-02-22T07:43:31.902Z,23.17
2023-02-22T07:45:58.320Z,21.83
2023-02-22T07:48:24.688Z,22.11
2023-02-22T07:50:51.045Z,23.31
2023-02-22T07:53:17.392Z,23.57
2023-02-22T07:55:43.780Z,24.79
2023-02-22T07:58:10.134Z,25.35
2023-02-22T08:00:36.480Z,24.97
2023-02-22T08:03:02.882Z,23.95
2023-02-22T08:05:29.284Z,23.66
2023-02-22T08:07:55.724Z,23.00
2023-02-22T08:10:22.076Z,22.81
2023-02-22T08:12:48.466Z,22.83
2023-02-22T08:15:14.870Z,22.33
2023-02-22T08:17:41.218Z,21.82
2023-02-22T08:20:07.557Z,21.15
2023-02-22T08:22:33.948Z,21.49
2023-02-22T08:25:00.344Z,21.15
2023-02-22T08:27:26.710Z,21.97
2023-02-22T08:29:53.082Z,22.43
2023-02-22T08:32:19.668Z,21.66
2023-02-22T08:34:46.127Z,21.72
2023-02-22T08:37:12.532Z,22.22
2023-02-22T08:39:38.888Z,23.27
2023-02-22T08:42:05.296Z,24.36
2023-02-22T08:44:31.687Z,29.59
2023-02-22T08:46:58.187Z,32.93
2023-02-22T08:49:24.545Z,28.53
2023-02-22T08:51:50.907Z,23.30
2023-02-22T08:54:17.256Z,22.03
2023-02-22T08:56:43.639Z,23.98
2023-02-22T08:59:10.034Z,23.94
2023-02-22T09:01:36.748Z,28.78
2023-02-22T09:04:03.294Z,35.46
2023-02-22T09:06:29.716Z,29.75
2023-02-22T09:08:56.171Z,22.64
2023-02-22T09:11:22.545Z,23.23
2023-02-22T09:13:48.934Z,22.79
2023-02-22T09:16:15.331Z,23.51
2023-02-22T09:18:44.366Z,25.28
2023-02-22T09:21:11.050Z,24.08
2023-02-22T09:23:37.474Z,24.29
2023-02-22T09:26:03.846Z,22.21
2023-02-22T09:28:30.220Z,22.12
2023-02-22T09:30:56.622Z,21.75
2023-02-22T09:33:23.083Z,20.96
2023-02-22T09:35:49.498Z,22.10
2023-02-22T09:38:15.866Z,22.70
2023-02-22T09:40:42.213Z,23.19
2023-02-22T09:43:08.616Z,23.07
2023-02-22T09:45:35.062Z,23.42
2023-02-22T09:48:11.718Z,22.25
2023-02-22T09:50:47.448Z,23.81
2023-02-22T09:53:13.811Z,23.14
2023-02-22T09:55:40.194Z,22.52
2023-02-22T09:58:06.588Z,23.31
2023-02-22T10:00:32.957Z,23.22
2023-02-22T10:02:59.319Z,23.40
2023-02-22T10:05:25.722Z,24.30
2023-02-22T10:07:52.129Z,23.12
2023-02-22T10:10:18.535Z,23.67
2023-02-22T10:12:44.968Z,24.01
2023-02-22T10:15:11.338Z,22.79
2023-02-22T10:17:38.848Z,22.99
2023-02-22T10:20:05.238Z,22.77
2023-02-22T10:22:31.635Z,22.77
2023-02-22T10:24:57.985Z,22.46
2023-02-22T10:27:24.371Z,23.06
2023-02-22T10:29:50.794Z,24.60
2023-02-22T10:32:17.271Z,23.51
2023-02-22T10:34:43.718Z,24.44
2023-02-22T10:37:10.214Z,24.84
2023-02-22T10:39:36.747Z,23.96
2023-02-22T10:42:03.184Z,23.76
2023-02-22T10:44:29.556Z,24.77
2023-02-22T10:46:55.940Z,25.14
2023-02-22T10:49:22.308Z,25.49
2023-02-22T10:51:48.682Z,26.37
2023-02-22T10:54:15.074Z,26.49
2023-02-22T10:56:41.485Z,29.01
2023-02-22T10:59:07.840Z,25.59
2023-02-22T11:01:34.237Z,25.66
2023-02-22T11:04:00.609Z,27.15
2023-02-22T11:06:26.991Z,26.87
2023-02-22T11:08:53.354Z,26.76
2023-02-22T11:11:19.697Z,28.61
2023-02-22T11:13:46.041Z,27.90
2023-02-22T11:16:12.420Z,26.39
2023-02-22T11:18:38.770Z,26.58
2023-02-22T11:21:05.136Z,27.42
2023-02-22T11:23:31.483Z,26.76
2023-02-22T11:25:57.845Z,28.56
2023-02-22T11:28:24.206Z,29.58
2023-02-22T11:30:50.639Z,30.14
2023-02-22T11:33:17.118Z,29.44
2023-02-22T11:35:43.503Z,31.18
2023-02-22T11:38:09.857Z,29.89
2023-02-22T11:40:36.203Z,30.62
2023-02-22T11:43:02.600Z,28.70
2023-02-22T11:45:28.979Z,27.54
2023-02-22T11:47:55.367Z,27.04
2023-02-22T11:50:21.714Z,28.37
2023-02-22T11:52:48.099Z,29.70
2023-02-22T11:55:14.449Z,31.69
2023-02-22T11:57:40.829Z,31.79
2023-02-22T12:00:07.242Z,29.25
2023-02-22T12:02:33.605Z,27.60
2023-02-22T12:05:00.082Z,27.57
2023-02-22T12:07:26.523Z,26.92
2023-02-22T12:09:52.912Z,26.77
2023-02-22T12:12:19.323Z,27.17
2023-02-22T12:14:45.682Z,27.28
2023-02-22T12:17:12.029Z,27.21
2023-02-22T12:19:38.400Z,26.60
2023-02-22T12:22:04.744Z,27.13
2023-02-22T12:24:31.100Z,26.75
2023-02-22T12:26:57.498Z,27.22
2023-02-22T12:29:23.915Z,28.49
2023-02-22T12:31:50.347Z,27.03
2023-02-22T12:34:16.870Z,26.65
2023-02-22T12:36:43.239Z,26.28
2023-02-22T12:39:09.588Z,25.94
2023-02-22T12:41:35.968Z,27.32
2023-02-22T12:44:02.325Z,26.56
2023-02-22T12:46:28.785Z,26.27
2023-02-22T12:48:55.242Z,28.24
2023-02-22T12:51:21.607Z,28.41
2023-02-22T12:53:48.002Z,27.96
2023-02-22T12:56:14.443Z,28.09
2023-02-22T12:58:40.845Z,26.71
2023-02-22T13:01:07.378Z,27.04
2023-02-22T13:03:33.806Z,26.05
2023-02-22T13:06:00.216Z,25.25
2023-02-22T13:08:26.613Z,24.15
2023-02-22T13:10:53.011Z,23.31
2023-02-22T13:13:19.410Z,23.58
2023-02-22T13:15:45.866Z,22.95
2023-02-22T13:18:12.317Z,23.06
2023-02-22T13:20:38.724Z,22.49
2023-02-22T13:23:05.143Z,20.90
2023-02-22T13:25:31.514Z,21.02
2023-02-22T13:27:57.877Z,20.89
2023-02-22T13:30:24.300Z,20.79
2023-02-22T13:32:50.779Z,21.35
2023-02-22T13:35:17.220Z,20.40
2023-02-22T13:37:43.577Z,21.01
2023-02-22T13:40:09.938Z,20.91
2023-02-22T13:42:36.287Z,20.45
2023-02-22T13:45:02.643Z,21.34
2023-02-22T13:47:29.029Z,20.96
2023-02-22T13:49:55.462Z,20.05
2023-02-22T13:52:21.850Z,19.32
2023-02-22T13:54:48.267Z,18.70
2023-02-22T13:57:14.688Z,18.32
2023-02-22T13:59:41.097Z,18.79
2023-02-22T14:02:07.451Z,19.18
2023-02-22T14:04:33.837Z,19.36
2023-02-22T14:07:00.197Z,19.61
2023-02-22T14:09:26.560Z,19.11
2023-02-22T14:11:52.949Z,18.60
2023-02-22T14:14:19.349Z,18.11
2023-02-22T14:16:45.714Z,18.80
2023-02-22T14:19:12.065Z,18.53
2023-02-22T14:21:38.420Z,19.87
2023-02-22T14:24:04.780Z,19.57
2023-02-22T14:26:31.152Z,19.72
2023-02-22T14:28:57.499Z,19.19
2023-02-22T14:31:35.407Z,19.55
2023-02-22T14:34:02.698Z,19.53
2023-02-22T14:36:29.109Z,19.13
2023-02-22T14:38:55.473Z,20.14
2023-02-22T14:41:21.863Z,19.61
2023-02-22T14:43:48.285Z,19.54
2023-02-22T14:46:14.654Z,19.49
2023-02-22T14:48:41.072Z,19.50
2023-02-22T14:51:20.229Z,19.78
2023-02-22T14:53:48.048Z,19.42
2023-02-22T14:56:14.466Z,18.52
2023-02-22T14:58:40.814Z,19.24
2023-02-22T15:01:07.191Z,19.73
2023-02-22T15:03:33.582Z,18.78
2023-02-22T15:05:59.993Z,19.33
2023-02-22T15:08:26.360Z,19.43
2023-02-22T15:10:52.738Z,21.62
2023-02-22T15:13:19.087Z,25.45
2023-02-22T15:15:47.547Z,27.17
2023-02-22T15:18:15.226Z,28.43
2023-02-22T15:20:41.626Z,28.52
2023-02-22T15:23:07.984Z,28.87
2023-02-22T15:25:34.325Z,29.35
2023-02-22T15:28:00.698Z,30.43
2023-02-22T15:30:27.118Z,28.26
2023-02-22T15:33:03.695Z,28.04
2023-02-22T15:35:31.049Z,28.02
2023-02-22T15:37:57.441Z,27.29
2023-02-22T15:40:23.799Z,27.54
2023-02-22T15:42:50.182Z,28.01
2023-02-22T15:45:16.589Z,28.55
2023-02-22T15:47:42.937Z,27.56
2023-02-22T15:50:09.303Z,28.27
2023-02-22T15:52:35.657Z,26.86
2023-02-22T15:55:02.051Z,29.17
2023-02-22T15:57:28.417Z,28.20
2023-02-22T15:59:54.798Z,27.37
2023-02-22T16:02:21.150Z,27.17
2023-02-22T16:04:59.084Z,27.62
2023-02-22T16:07:25.787Z,28.09
2023-02-22T16:09:52.137Z,26.02
2023-02-22T16:12:18.492Z,25.98
2023-02-22T16:14:44.945Z,25.43
2023-02-22T16:17:11.390Z,27.11
2023-02-22T16:19:37.803Z,26.55
2023-02-22T16:22:04.216Z,25.55
2023-02-22T16:24:30.590Z,26.61
2023-02-22T16:26:56.988Z,26.31
2023-02-22T16:29:23.397Z,29.55
2023-02-22T16:31:49.991Z,26.82
2023-02-22T16:34:16.417Z,29.83
2023-02-22T16:36:42.850Z,30.25
2023-02-22T16:39:09.257Z,27.53
2023-02-22T16:41:35.614Z,37.39
2023-02-22T16:44:02.062Z,32.51
2023-02-22T16:46:28.502Z,27.40
2023-02-22T16:48:54.867Z,36.31
2023-02-22T16:51:21.268Z,59.32
2023-02-22T16:53:47.632Z,41.11
2023-02-22T16:56:14.038Z,32.07
2023-02-22T16:58:40.437Z,25.66
2023-02-22T17:01:06.819Z,25.57
2023-02-22T17:03:33.215Z,24.85
2023-02-22T17:05:59.598Z,26.25
2023-02-22T17:08:25.948Z,24.41
2023-02-22T17:10:52.296Z,25.94
2023-02-22T17:13:23.770Z,26.27
2023-02-22T17:15:52.212Z,25.84
2023-02-22T17:18:18.589Z,34.12
2023-02-22T17:20:44.956Z,68.44
2023-02-22T17:23:11.360Z,34.76
2023-02-22T17:25:37.893Z,26.19
2023-02-22T17:28:04.256Z,28.48
2023-02-22T17:30:30.618Z,28.06
2023-02-22T17:32:57.006Z,27.86
2023-02-22T17:35:23.372Z,27.12
2023-02-22T17:37:49.756Z,26.72
2023-02-22T17:40:16.136Z,26.39
2023-02-22T17:42:42.506Z,27.31
2023-02-22T17:45:08.894Z,28.06
2023-02-22T17:47:35.294Z,29.05
2023-02-22T17:50:01.648Z,28.24
2023-02-22T17:52:28.030Z,27.10
2023-02-22T17:54:54.435Z,28.89
2023-02-22T17:57:20.801Z,29.17
2023-02-22T17:59:47.140Z,28.42
2023-02-22T18:02:13.516Z,29.34
2023-02-22T18:04:39.930Z,29.96
2023-02-22T18:07:06.279Z,31.23
2023-02-22T18:09:32.721Z,29.60
2023-02-22T18:11:59.163Z,30.44
2023-02-22T18:14:25.582Z,29.99
2023-02-22T18:16:52.049Z,29.38
2023-02-22T18:19:18.416Z,31.31
2023-02-22T18:21:44.756Z,29.07
2023-02-22T18:24:11.103Z,31.01
2023-02-22T18:26:37.504Z,29.45
2023-02-22T18:29:03.976Z,29.87
2023-02-22T18:31:30.548Z,28.28
2023-02-22T18:33:56.992Z,28.72
2023-02-22T18:36:23.745Z,28.16
2023-02-22T18:38:50.315Z,28.83
2023-02-22T18:41:16.719Z,29.60
2023-02-22T18:43:43.141Z,30.02
2023-02-22T18:46:09.598Z,30.11
2023-02-22T18:48:35.983Z,36.11
2023-02-22T18:51:02.388Z,36.72
2023-02-22T18:53:28.751Z,33.14
2023-02-22T18:55:55.117Z,30.94
2023-02-22T18:58:21.459Z,29.93
2023-02-22T19:00:47.842Z,30.24
2023-02-22T19:03:14.238Z,29.52
2023-02-22T19:05:40.653Z,31.95
2023-02-22T19:08:07.008Z,36.01
2023-02-22T19:10:33.398Z,30.88
2023-02-22T19:12:59.812Z,30.72
2023-02-22T19:15:26.201Z,28.59
2023-02-22T19:17:52.607Z,28.23
2023-02-22T19:20:18.966Z,28.79
2023-02-22T19:22:45.368Z,30.29
2023-02-22T19:25:11.730Z,32.90
2023-02-22T19:27:38.067Z,32.66
2023-02-22T19:30:04.436Z,35.15
2023-02-22T19:32:30.932Z,32.59
2023-02-22T19:34:57.412Z,31.55
2023-02-22T19:37:23.766Z,31.93
2023-02-22T19:39:50.167Z,32.89
2023-02-22T19:42:16.606Z,31.44
2023-02-22T19:44:43.006Z,30.44
2023-02-22T19:47:09.446Z,29.83
2023-02-22T19:49:35.831Z,30.87
2023-02-22T19:52:02.387Z,31.53
2023-02-22T19:54:28.762Z,32.40
2023-02-22T19:56:55.157Z,30.99
2023-02-22T19:59:21.568Z,32.52
2023-02-22T20:01:47.976Z,30.90
2023-02-22T20:04:14.502Z,32.33
2023-02-22T20:06:40.905Z,33.07
2023-02-22T20:09:07.308Z,33.26
2023-02-22T20:11:33.707Z,33.83
2023-02-22T20:14:00.068Z,33.58
2023-02-22T20:16:26.468Z,35.09
2023-02-22T20:18:52.873Z,33.12
2023-02-22T20:21:19.517Z,30.93
2023-02-22T20:23:46.102Z,31.13
2023-02-22T20:26:12.505Z,34.88
2023-02-22T20:28:38.852Z,34.06
2023-02-22T20:31:05.212Z,33.17
2023-02-22T20:33:31.796Z,31.35
2023-02-22T20:35:58.271Z,32.35
2023-02-22T20:38:24.674Z,35.63
2023-02-22T20:40:51.040Z,36.79
2023-02-22T20:43:17.419Z,35.75
2023-02-22T20:45:43.812Z,34.00
2023-02-22T20:48:10.202Z,34.65
2023-02-22T20:50:36.545Z,34.62
2023-02-22T20:53:02.925Z,34.39
2023-02-22T20:55:29.330Z,33.87
2023-02-22T20:57:55.724Z,34.80
2023-02-22T21:00:22.087Z,35.79
2023-02-22T21:02:48.444Z,37.17
2023-02-22T21:05:14.833Z,34.30
2023-02-22T21:07:41.240Z,33.30
2023-02-22T21:10:07.642Z,33.69
2023-02-22T21:12:34.063Z,33.02
2023-02-22T21:15:00.442Z,34.97
2023-02-22T21:17:26.815Z,33.13
2023-02-22T21:19:53.213Z,30.53
2023-02-22T21:22:19.595Z,30.64
2023-02-22T21:24:45.959Z,29.64
2023-02-22T21:27:12.357Z,31.08
2023-02-22T21:29:38.736Z,31.15
2023-02-22T21:32:05.221Z,32.05
2023-02-22T21:34:31.664Z,30.18
2023-02-22T21:36:58.016Z,30.36
2023-02-22T21:39:24.372Z,30.97
2023-02-22T21:41:50.767Z,30.36
2023-02-22T21:44:17.179Z,32.42
2023-02-22T21:46:43.537Z,32.18
2023-02-22T21:49:09.950Z,32.58
2023-02-22T21:51:36.299Z,33.49
2023-02-22T21:54:02.644Z,36.47
2023-02-22T21:56:29.036Z,39.91
2023-02-22T21:58:55.424Z,34.60
2023-02-22T22:01:21.865Z,35.11
2023-02-22T22:03:48.292Z,34.92
2023-02-22T22:06:14.666Z,35.30
2023-02-22T22:08:41.050Z,33.21
2023-02-22T22:11:07.396Z,35.41
2023-02-22T22:13:33.778Z,35.35
2023-02-22T22:16:00.241Z,34.49
2023-02-22T22:18:26.648Z,39.15
2023-02-22T22:20:53.004Z,41.19
2023-02-22T22:23:19.343Z,39.74
2023-02-22T22:25:45.727Z,41.20
2023-02-22T22:28:12.117Z,38.89
2023-02-22T22:30:38.570Z,38.55
2023-02-22T22:33:04.995Z,42.85
2023-02-22T22:35:31.351Z,45.35
2023-02-22T22:37:57.698Z,44.42
2023-02-22T22:40:24.041Z,41.98
2023-02-22T22:42:50.383Z,40.02
2023-02-22T22:45:16.780Z,38.02
2023-02-22T22:47:43.170Z,38.83
2023-02-22T22:50:09.565Z,40.77
2023-02-22T22:52:35.922Z,46.72
2023-02-22T22:55:02.296Z,64.77
2023-02-22T22:57:28.692Z,81.43
2023-02-22T22:59:55.090Z,69.15
2023-02-22T23:02:21.506Z,55.18
2023-02-22T23:04:47.902Z,53.51
2023-02-22T23:07:14.235Z,49.24
2023-02-22T23:09:40.626Z,48.02
2023-02-22T23:12:06.978Z,45.13
2023-02-22T23:14:33.361Z,45.22
2023-02-22T23:16:59.763Z,41.27
2023-02-22T23:19:26.186Z,37.81
2023-02-22T23:21:52.585Z,35.86
2023-02-22T23:24:18.982Z,36.32
2023-02-22T23:26:45.326Z,35.91
2023-02-22T23:29:11.710Z,37.27
2023-02-22T23:31:38.181Z,36.19
2023-02-22T23:34:04.604Z,36.72
2023-02-22T23:36:30.989Z,38.04
2023-02-22T23:38:57.460Z,37.43
2023-02-22T23:41:23.841Z,36.20
2023-02-22T23:43:50.251Z,35.69
2023-02-22T23:46:16.649Z,35.69
2023-02-22T23:48:42.998Z,34.50
2023-02-22T23:51:09.406Z,34.06
2023-02-22T23:53:36.168Z,34.28
2023-02-22T23:56:02.506Z,32.57
2023-02-22T23:58:28.850Z,34.98
